Terminal Aerodrome Forecast
Issued by NWS

Home | Current Version | Previous Version | Text Only | Print | Product List | Glossary On
Versions: 1 2 3 4 5 6 7 8 9 10 11 12 13 14 15 16 17 18 19 20 21
415
FTUS41 KGYX 282323
TAFPSM
TAF
KPSM 282323Z 2900/2924 VRB03KT 4SM -RA BR OVC003
     FM290800 33004KT 2SM -DZ BR OVC006
     FM291300 33009KT P6SM SCT035 SCT250
     FM291800 32013G20KT P6SM BKN100=

USA.gov is the U.S. government's official web portal to all federal, state and local government web resources and services.